Time;durP1;ratioP1;P1;durP2;ratioP2;P2;SDS_P1;SDS_P2;PMS_P1;PMS_P2;Temp;Humidity;BMP_temperature;BMP_pressure;BME280_temperature;BME280_humidity;BME280_pressure;Samples;Min_cycle;Max_cycle;Signal;HPM_P1;HPM_P2
2022/04/22 00:00:17;;;;;;;2.53;1.43;;;8.40;99.90;;;;;;5034734;28;20778;-67
2022/04/22 00:02:42;;;;;;;2.60;1.47;;;8.30;99.90;;;;;;5034788;28;20164;-67
2022/04/22 00:05:08;;;;;;;2.13;1.93;;;8.30;99.90;;;;;;5034172;28;20203;-67
2022/04/22 00:07:33;;;;;;;1.50;1.33;;;8.20;99.90;;;;;;5016960;28;20172;-67
2022/04/22 00:09:59;;;;;;;3.83;1.80;;;8.10;99.90;;;;;;5035013;28;20167;-68
2022/04/22 00:12:24;;;;;;;4.07;1.80;;;8.10;99.90;;;;;;5024829;28;20459;-68
2022/04/22 00:14:50;;;;;;;2.13;1.60;;;8.00;99.90;;;;;;5053641;28;20195;-67
2022/04/22 00:17:15;;;;;;;2.33;1.83;;;7.90;99.90;;;;;;5054789;28;20594;-67
2022/04/22 00:19:41;;;;;;;2.57;2.37;;;7.80;99.90;;;;;;5055019;28;20170;-68
2022/04/22 00:22:07;;;;;;;3.10;1.80;;;7.80;99.90;;;;;;5055109;28;20174;-66
2022/04/22 00:24:32;;;;;;;1.63;1.50;;;7.70;99.90;;;;;;5054954;28;20575;-67
2022/04/22 00:26:58;;;;;;;2.60;1.77;;;7.60;99.90;;;;;;5054726;28;20166;-66
2022/04/22 00:29:23;;;;;;;4.13;2.37;;;7.50;99.90;;;;;;5036751;28;20617;-66
2022/04/22 00:31:49;;;;;;;2.00;1.80;;;7.50;99.90;;;;;;5054468;28;20202;-67
2022/04/22 00:34:14;;;;;;;3.73;2.27;;;7.40;99.90;;;;;;5054289;28;20210;-68
2022/04/22 00:36:40;;;;;;;3.37;1.83;;;7.40;99.90;;;;;;5054629;28;20191;-68
2022/04/22 00:39:05;;;;;;;3.60;2.03;;;7.30;99.90;;;;;;5038525;28;20171;-68
2022/04/22 00:41:32;;;;;;;5.23;2.90;;;7.20;99.90;;;;;;5034784;28;20557;-68
2022/04/22 00:43:57;;;;;;;4.13;1.73;;;7.10;99.90;;;;;;5034839;28;20207;-68
2022/04/22 00:46:22;;;;;;;2.60;2.40;;;7.10;99.90;;;;;;5034295;28;20426;-67
2022/04/22 00:48:48;;;;;;;4.57;2.80;;;7.10;99.90;;;;;;5033991;28;20199;-67
2022/04/22 00:51:14;;;;;;;4.70;2.60;;;7.00;99.90;;;;;;5034215;28;20251;-67
2022/04/22 00:53:41;;;;;;;1.83;1.70;;;6.90;99.90;;;;;;5034744;28;20340;-68
2022/04/22 00:56:13;;;;;;;3.40;3.10;;;6.90;99.90;;;;;;5034118;28;20276;-67
2022/04/22 00:58:41;;;;;;;6.43;2.27;;;6.90;99.90;;;;;;5034582;28;20406;-67
2022/04/22 01:01:07;;;;;;;6.53;2.80;;;6.90;99.90;;;;;;5034406;28;20901;-67
2022/04/22 01:03:33;;;;;;;3.63;2.27;;;6.80;99.90;;;;;;5033246;28;20500;-68
2022/04/22 01:11:31;;;;;;;3.53;2.47;;;6.70;99.90;;;;;;5032518;28;20476;-68
2022/04/22 01:13:58;;;;;;;4.60;4.10;;;6.60;99.90;;;;;;5033264;28;20431;-67
2022/04/22 01:16:24;;;;;;;3.67;1.83;;;6.60;99.90;;;;;;5033254;28;20901;-68
2022/04/22 01:18:50;;;;;;;4.23;2.60;;;6.50;99.90;;;;;;5033525;28;20502;-68
2022/04/22 01:21:15;;;;;;;3.20;2.93;;;6.40;99.90;;;;;;5033200;28;20614;-67
2022/04/22 01:23:41;;;;;;;4.27;3.43;;;6.40;99.90;;;;;;5033001;28;20230;-67
2022/04/22 01:26:07;;;;;;;4.57;3.10;;;6.40;99.90;;;;;;5033774;28;20156;-68
2022/04/22 01:28:33;;;;;;;14.70;3.87;;;6.30;99.90;;;;;;5033423;28;20191;-68
2022/04/22 01:30:59;;;;;;;4.30;2.90;;;6.30;99.90;;;;;;5033467;28;20472;-70
2022/04/22 01:33:25;;;;;;;4.20;2.50;;;6.20;99.90;;;;;;5032931;28;20994;-67
2022/04/22 01:35:51;;;;;;;7.37;2.77;;;6.20;99.90;;;;;;5033081;28;20489;-67
2022/04/22 01:38:17;;;;;;;3.00;2.43;;;6.20;99.90;;;;;;5032965;28;20402;-68
2022/04/22 01:40:42;;;;;;;3.13;2.40;;;6.10;99.90;;;;;;5033387;28;20164;-68
2022/04/22 01:43:08;;;;;;;5.83;2.77;;;6.10;99.90;;;;;;5033113;28;20259;-67
2022/04/22 01:45:34;;;;;;;3.00;2.37;;;6.10;99.90;;;;;;5033022;28;20211;-67
2022/04/22 01:48:00;;;;;;;7.23;2.90;;;6.10;99.90;;;;;;5036631;28;20178;-67
2022/04/22 01:50:26;;;;;;;2.93;2.67;;;6.10;99.90;;;;;;5044872;28;20405;-67
2022/04/22 01:52:52;;;;;;;3.33;3.03;;;6.10;99.90;;;;;;5052987;28;20178;-68
2022/04/22 01:55:17;;;;;;;6.20;3.83;;;6.10;99.90;;;;;;5052445;28;20959;-69
2022/04/22 01:57:43;;;;;;;3.10;2.80;;;6.10;99.90;;;;;;5052461;28;20660;-69
2022/04/22 02:00:09;;;;;;;4.63;3.33;;;6.10;99.90;;;;;;5050938;28;20171;-68
2022/04/22 02:02:35;;;;;;;5.23;3.20;;;6.10;99.90;;;;;;5032499;28;20176;-68
2022/04/22 02:05:01;;;;;;;3.80;1.93;;;6.10;99.90;;;;;;5032279;28;20723;-68
2022/04/22 02:07:26;;;;;;;4.53;2.47;;;6.00;99.90;;;;;;5031968;28;20446;-69
2022/04/22 02:09:52;;;;;;;3.87;3.60;;;6.00;99.90;;;;;;5032056;28;20259;-67
2022/04/22 02:12:17;;;;;;;4.10;3.13;;;6.00;99.90;;;;;;5032851;28;20175;-69
2022/04/22 02:14:43;;;;;;;2.90;2.50;;;6.00;99.90;;;;;;5031901;28;20238;-68
2022/04/22 02:17:08;;;;;;;5.30;3.03;;;6.00;99.90;;;;;;5031928;28;20171;-68
2022/04/22 02:19:34;;;;;;;3.50;3.20;;;5.90;99.90;;;;;;5031949;28;20253;-68
2022/04/22 02:21:59;;;;;;;6.77;3.73;;;5.90;99.90;;;;;;5032658;28;20520;-69
2022/04/22 02:24:25;;;;;;;3.87;3.07;;;5.90;99.90;;;;;;5031452;28;20218;-69
2022/04/22 02:29:37;;;;;;;4.37;3.40;;;5.90;99.90;;;;;;5031660;28;20179;-68
2022/04/22 02:32:03;;;;;;;5.33;3.00;;;5.90;99.90;;;;;;5031792;28;20868;-68
2022/04/22 02:34:28;;;;;;;5.67;3.47;;;5.90;99.90;;;;;;5031432;28;20442;-68
2022/04/22 02:36:54;;;;;;;3.23;2.33;;;5.90;99.90;;;;;;5031860;28;20187;-69
2022/04/22 02:39:19;;;;;;;4.03;3.27;;;5.90;99.90;;;;;;5032021;28;20168;-69
2022/04/22 02:47:13;;;;;;;5.73;2.93;;;5.90;99.90;;;;;;5032156;28;20464;-68
2022/04/22 02:49:43;;;;;;;6.13;3.10;;;5.90;99.90;;;;;;5031661;28;20406;-68
2022/04/22 02:52:09;;;;;;;3.03;2.53;;;5.90;99.90;;;;;;5031407;28;20155;-68
2022/04/22 02:54:34;;;;;;;6.03;3.63;;;5.90;99.90;;;;;;5031258;28;20461;-68
2022/04/22 02:57:00;;;;;;;7.60;4.00;;;6.00;99.90;;;;;;5031321;28;20167;-68
2022/04/22 02:59:27;;;;;;;3.77;3.40;;;5.90;99.90;;;;;;5031284;28;20665;-68
2022/04/22 03:01:54;;;;;;;5.37;2.87;;;5.90;99.90;;;;;;5013578;28;20496;-68
2022/04/22 03:04:19;;;;;;;4.53;3.13;;;5.90;99.90;;;;;;5030882;28;20456;-68
2022/04/22 03:06:44;;;;;;;4.30;3.57;;;5.80;99.90;;;;;;5031028;28;20414;-68
2022/04/22 03:09:10;;;;;;;5.07;3.10;;;5.80;99.90;;;;;;5013392;28;20253;-68
2022/04/22 03:11:35;;;;;;;4.27;2.73;;;5.80;99.90;;;;;;5031262;28;20164;-68
2022/04/22 03:14:03;;;;;;;3.13;2.77;;;5.80;99.90;;;;;;5031022;28;20535;-69
2022/04/22 03:16:29;;;;;;;7.17;3.33;;;5.80;99.90;;;;;;5031567;28;20233;-68
2022/04/22 03:18:54;;;;;;;5.57;3.30;;;5.80;99.90;;;;;;5031412;28;20432;-68
2022/04/22 03:21:20;;;;;;;8.23;3.30;;;5.70;99.90;;;;;;5031337;28;20414;-69
2022/04/22 03:23:45;;;;;;;5.47;5.00;;;5.70;99.90;;;;;;5031284;28;20202;-68
2022/04/22 03:26:11;;;;;;;4.87;2.63;;;5.70;99.90;;;;;;5031058;28;20652;-69
2022/04/22 03:28:38;;;;;;;6.23;3.60;;;5.70;99.90;;;;;;5030927;28;20217;-69
2022/04/22 03:31:04;;;;;;;4.73;3.60;;;5.60;99.90;;;;;;5031225;28;20791;-69
2022/04/22 03:33:29;;;;;;;3.43;2.70;;;5.60;99.90;;;;;;5030813;28;20402;-68
2022/04/22 03:35:55;;;;;;;4.27;3.13;;;5.60;99.90;;;;;;5030874;28;20598;-68
2022/04/22 03:38:21;;;;;;;3.53;2.90;;;5.60;99.90;;;;;;5030892;28;20164;-69
2022/04/22 03:40:48;;;;;;;11.10;4.13;;;5.50;99.90;;;;;;5031051;28;20171;-69
2022/04/22 03:43:14;;;;;;;4.13;3.33;;;5.50;99.90;;;;;;5030461;28;20490;-69
2022/04/22 03:45:40;;;;;;;3.40;2.50;;;5.50;99.90;;;;;;5030775;28;20454;-71
2022/04/22 03:48:07;;;;;;;3.33;3.03;;;5.50;99.90;;;;;;5030985;28;20807;-70
2022/04/22 03:50:33;;;;;;;5.13;3.50;;;5.50;99.90;;;;;;5030864;28;20403;-69
2022/04/22 03:52:58;;;;;;;4.77;3.93;;;5.60;99.90;;;;;;5031122;28;20970;-69
2022/04/22 03:55:24;;;;;;;4.83;3.33;;;5.60;99.90;;;;;;5063130;22;20520;-68
2022/04/22 04:00:33;;;;;;;4.40;4.00;;;5.60;99.90;;;;;;5031945;28;20175;-69
2022/04/22 04:03:01;;;;;;;5.40;3.13;;;5.60;99.90;;;;;;5031926;28;20896;-68
2022/04/22 04:05:27;;;;;;;3.43;3.13;;;5.50;99.90;;;;;;5031657;28;20220;-70
2022/04/22 04:07:53;;;;;;;3.53;3.07;;;5.60;99.90;;;;;;5031489;28;20402;-68
2022/04/22 04:15:58;;;;;;;8.50;4.80;;;5.60;99.90;;;;;;5031500;28;20445;-68
2022/04/22 04:18:25;;;;;;;6.20;4.30;;;5.50;99.90;;;;;;5031329;28;20402;-68
2022/04/22 04:23:34;;;;;;;4.17;3.60;;;5.50;99.90;;;;;;5031357;28;20887;-69
2022/04/22 04:25:59;;;;;;;4.03;3.40;;;5.50;99.90;;;;;;5031310;28;20414;-69
2022/04/22 04:28:27;;;;;;;4.03;3.30;;;5.60;99.90;;;;;;5031478;28;20168;-68
2022/04/22 04:30:54;;;;;;;5.30;4.00;;;5.60;99.90;;;;;;5031733;28;20172;-68
2022/04/22 04:33:20;;;;;;;6.00;5.43;;;5.60;99.90;;;;;;5017247;28;20429;-69
2022/04/22 04:35:47;;;;;;;6.40;4.80;;;5.60;99.90;;;;;;5035024;28;20430;-68
2022/04/22 04:38:13;;;;;;;5.50;3.90;;;5.70;99.90;;;;;;5035002;28;20442;-68
2022/04/22 04:40:39;;;;;;;8.97;4.23;;;5.70;99.90;;;;;;5034855;28;20417;-68
2022/04/22 04:43:07;;;;;;;6.30;3.80;;;5.70;99.90;;;;;;5034797;28;20402;-69
2022/04/22 04:45:34;;;;;;;4.33;3.93;;;5.70;99.90;;;;;;5034421;28;20599;-68
2022/04/22 04:47:59;;;;;;;5.17;3.43;;;5.70;99.90;;;;;;5034474;28;20410;-68
2022/04/22 04:50:25;;;;;;;9.80;4.47;;;5.70;99.90;;;;;;5034586;28;20405;-68
2022/04/22 04:52:51;;;;;;;8.23;3.93;;;5.70;99.90;;;;;;5034536;28;20178;-68
2022/04/22 04:55:16;;;;;;;5.77;4.00;;;5.80;99.90;;;;;;5034073;28;20210;-68
2022/04/22 04:57:42;;;;;;;4.57;4.17;;;5.90;99.90;;;;;;5034273;28;20414;-67
2022/04/22 05:00:10;;;;;;;7.63;4.67;;;5.90;99.90;;;;;;5034220;28;20172;-68
2022/04/22 05:02:36;;;;;;;4.60;3.07;;;6.00;99.90;;;;;;5034125;28;20413;-68
2022/04/22 05:05:05;;;;;;;3.60;3.30;;;6.00;99.90;;;;;;5034212;28;20466;-68
2022/04/22 05:07:30;;;;;;;4.23;3.67;;;6.00;99.90;;;;;;5034262;28;20420;-68
2022/04/22 05:09:56;;;;;;;3.57;2.80;;;6.20;99.90;;;;;;5034134;28;20494;-68
2022/04/22 05:12:21;;;;;;;7.73;3.40;;;6.20;99.90;;;;;;5034142;28;20172;-69
2022/04/22 05:14:47;;;;;;;4.20;3.30;;;6.40;99.90;;;;;;5034072;28;20202;-69
2022/04/22 05:17:13;;;;;;;5.33;3.93;;;6.40;99.90;;;;;;5034179;28;20713;-68
2022/04/22 05:19:38;;;;;;;5.47;3.57;;;6.50;99.90;;;;;;5033955;28;20613;-68
2022/04/22 05:22:04;;;;;;;3.50;2.87;;;6.60;99.90;;;;;;5033837;28;20433;-68
2022/04/22 05:24:31;;;;;;;6.93;4.07;;;6.70;99.90;;;;;;5033657;28;20200;-67
2022/04/22 05:26:57;;;;;;;3.10;2.73;;;6.90;99.90;;;;;;5033850;28;20168;-68
2022/04/22 05:34:50;;;;;;;3.40;3.10;;;7.30;99.90;;;;;;5033656;28;20424;-68
2022/04/22 05:37:15;;;;;;;8.40;3.20;;;7.60;99.90;;;;;;5033790;28;20406;-68
2022/04/22 05:39:43;;;;;;;3.40;3.07;;;7.60;99.90;;;;;;5033728;28;20182;-69
2022/04/22 05:42:09;;;;;;;5.20;3.23;;;7.80;99.90;;;;;;5034613;28;20172;-69
2022/04/22 05:44:35;;;;;;;5.73;4.00;;;8.10;99.90;;;;;;5035528;28;21064;-68
2022/04/22 05:47:00;;;;;;;3.80;2.70;;;8.30;99.90;;;;;;5033755;28;20502;-68
2022/04/22 05:49:27;;;;;;;3.50;3.00;;;7.90;99.90;;;;;;5033483;28;20649;-68
2022/04/22 05:51:53;;;;;;;3.10;2.80;;;7.90;99.90;;;;;;5033443;28;20203;-68
2022/04/22 05:54:19;;;;;;;8.80;3.63;;;7.90;99.90;;;;;;5032960;28;20935;-67
2022/04/22 05:56:44;;;;;;;3.53;2.47;;;8.40;99.90;;;;;;5033140;28;20403;-68
2022/04/22 05:59:09;;;;;;;4.10;3.20;;;8.80;99.90;;;;;;5033296;28;20271;-67
2022/04/22 06:01:35;;;;;;;3.80;3.20;;;9.40;99.90;;;;;;5015509;28;20167;-69
2022/04/22 06:04:00;;;;;;;5.10;3.20;;;9.90;99.90;;;;;;5033893;28;20203;-69
2022/04/22 06:06:26;;;;;;;10.80;3.97;;;10.30;99.90;;;;;;5033856;28;20250;-69
2022/04/22 06:11:35;;;;;;;5.07;3.20;;;10.70;99.90;;;;;;5034933;28;20167;-70
2022/04/22 06:14:01;;;;;;;4.23;3.10;;;10.40;99.90;;;;;;5033473;28;20972;-68
2022/04/22 06:16:27;;;;;;;3.23;2.83;;;10.00;99.90;;;;;;5033369;28;20251;-69
2022/04/22 06:18:52;;;;;;;4.37;3.57;;;9.70;99.90;;;;;;5033514;28;20172;-68
2022/04/22 06:21:18;;;;;;;4.50;4.10;;;9.40;99.90;;;;;;5033493;28;20642;-68
2022/04/22 06:23:43;;;;;;;4.50;3.30;;;9.40;99.90;;;;;;5032978;28;20720;-68
2022/04/22 06:26:09;;;;;;;7.03;3.53;;;9.30;99.90;;;;;;5032880;28;20162;-67
2022/04/22 06:28:34;;;;;;;4.10;3.70;;;9.30;99.90;;;;;;5033132;28;20163;-69
2022/04/22 06:31:00;;;;;;;3.70;3.27;;;9.70;99.90;;;;;;5032817;28;20186;-68
2022/04/22 06:33:26;;;;;;;3.93;3.47;;;10.40;99.90;;;;;;5033477;28;20186;-69
2022/04/22 06:35:52;;;;;;;3.33;3.03;;;10.60;99.90;;;;;;5031698;28;20414;-68
2022/04/22 06:38:18;;;;;;;4.70;3.03;;;10.40;99.90;;;;;;5031611;28;20414;-68
2022/04/22 06:46:16;;;;;;;6.17;3.80;;;9.80;99.90;;;;;;5033121;28;20907;-69
2022/04/22 06:48:43;;;;;;;7.40;2.57;;;9.70;99.90;;;;;;5031398;28;20403;-69
2022/04/22 06:51:09;;;;;;;5.30;2.93;;;9.60;99.90;;;;;;5032798;28;20787;-69
2022/04/22 06:53:36;;;;;;;3.83;3.40;;;9.50;99.90;;;;;;5033993;28;20477;-69
2022/04/22 06:56:03;;;;;;;3.83;3.40;;;9.50;99.90;;;;;;5051026;28;20418;-68
2022/04/22 06:58:34;;;;;;;3.50;2.97;;;9.50;99.90;;;;;;5051361;28;20410;-68
2022/04/22 07:00:59;;;;;;;4.17;3.20;;;9.40;99.90;;;;;;5052635;28;20991;-68
2022/04/22 07:03:25;;;;;;;3.97;2.80;;;9.30;99.90;;;;;;5050754;28;20452;-68
2022/04/22 07:05:52;;;;;;;5.43;3.50;;;9.40;99.90;;;;;;5052016;28;20214;-68
2022/04/22 07:08:19;;;;;;;6.53;3.70;;;9.40;99.90;;;;;;5052482;28;20402;-68
2022/04/22 07:10:48;;;;;;;3.87;2.90;;;9.50;99.90;;;;;;5051002;28;20409;-68
2022/04/22 07:13:16;;;;;;;5.40;3.63;;;9.70;99.90;;;;;;5052206;28;20786;-72
2022/04/22 07:15:43;;;;;;;4.47;3.23;;;9.60;99.90;;;;;;5052134;28;20521;-71
2022/04/22 07:18:10;;;;;;;3.27;2.97;;;9.60;99.90;;;;;;5058313;28;20440;-68
2022/04/22 07:20:36;;;;;;;10.63;4.40;;;9.60;99.90;;;;;;5072456;28;20435;-69
2022/04/22 07:23:02;;;;;;;6.53;3.73;;;9.70;99.90;;;;;;5071662;28;20453;-69
2022/04/22 07:25:28;;;;;;;4.73;2.80;;;9.90;99.90;;;;;;5052038;28;20982;-69
2022/04/22 07:27:55;;;;;;;4.10;2.57;;;10.10;99.90;;;;;;5051125;28;20217;-67
2022/04/22 07:30:22;;;;;;;3.57;3.27;;;10.30;99.90;;;;;;5052600;28;20398;-68
2022/04/22 07:32:49;;;;;;;4.40;3.17;;;10.40;99.90;;;;;;5055031;28;21076;-68
2022/04/22 07:35:20;;;;;;;3.60;3.00;;;10.60;99.90;;;;;;5052045;28;20939;-68
2022/04/22 07:37:50;;;;;;;4.40;4.00;;;10.60;99.90;;;;;;5052255;28;20401;-68
2022/04/22 07:40:16;;;;;;;3.30;2.97;;;10.40;99.90;;;;;;5052429;28;20516;-68
2022/04/22 07:48:17;;;;;;;5.07;3.70;;;10.50;99.90;;;;;;5052392;28;20447;-68
2022/04/22 07:50:43;;;;;;;4.77;3.80;;;10.40;99.90;;;;;;5051956;28;20398;-69
2022/04/22 07:53:08;;;;;;;2.80;2.50;;;10.40;99.90;;;;;;5052514;28;20398;-68
2022/04/22 07:55:33;;;;;;;5.03;3.60;;;10.20;99.90;;;;;;5053325;28;20900;-69
2022/04/22 07:57:59;;;;;;;5.90;5.27;;;10.20;99.90;;;;;;5052330;28;20173;-69
2022/04/22 08:00:25;;;;;;;5.30;4.77;;;10.20;99.90;;;;;;5051665;28;20185;-68
2022/04/22 08:02:50;;;;;;;8.87;5.70;;;10.10;99.90;;;;;;5043119;28;20223;-68
2022/04/22 08:05:16;;;;;;;5.83;4.57;;;10.10;99.90;;;;;;5037409;28;20493;-70
2022/04/22 08:07:41;;;;;;;10.00;5.50;;;10.00;99.90;;;;;;5034477;28;20164;-69
2022/04/22 08:10:07;;;;;;;3.53;3.23;;;10.20;99.90;;;;;;5035289;28;20178;-68
2022/04/22 08:12:33;;;;;;;10.77;5.50;;;10.30;99.90;;;;;;5035431;28;20255;-68
2022/04/22 08:15:00;;;;;;;7.80;4.30;;;10.50;99.90;;;;;;5035156;28;20202;-68
2022/04/22 08:17:25;;;;;;;6.10;4.23;;;10.60;99.90;;;;;;5035141;28;20414;-68
2022/04/22 08:19:51;;;;;;;8.13;4.70;;;10.60;99.90;;;;;;5035283;28;20516;-69
2022/04/22 08:22:17;;;;;;;6.40;4.07;;;10.60;99.90;;;;;;5035063;28;20597;-69
2022/04/22 08:24:43;;;;;;;8.53;5.63;;;10.70;99.90;;;;;;5035121;28;20553;-68
2022/04/22 08:27:10;;;;;;;6.60;4.77;;;10.70;99.90;;;;;;5034960;28;20421;-69
2022/04/22 08:29:35;;;;;;;5.23;4.73;;;10.60;99.90;;;;;;5052361;28;20167;-67
2022/04/22 08:32:01;;;;;;;6.43;4.33;;;10.60;99.90;;;;;;5054877;28;20408;-69
2022/04/22 08:34:26;;;;;;;5.37;4.27;;;10.60;99.90;;;;;;5054770;28;20425;-69
2022/04/22 08:36:52;;;;;;;5.20;4.07;;;10.50;99.90;;;;;;5055179;28;20241;-68
2022/04/22 08:39:17;;;;;;;8.20;4.63;;;10.60;99.90;;;;;;5055572;28;20178;-68
2022/04/22 08:41:43;;;;;;;7.10;4.30;;;10.80;99.90;;;;;;5055333;28;20205;-68
2022/04/22 08:44:13;;;;;;;5.87;4.47;;;10.90;99.90;;;;;;5055001;28;20199;-68
2022/04/22 08:52:09;;;;;;;6.33;4.53;;;11.20;99.90;;;;;;5074780;28;20469;-70
2022/04/22 08:54:38;;;;;;;5.40;4.73;;;11.40;99.90;;;;;;5074321;28;20927;-68
2022/04/22 08:57:03;;;;;;;5.77;4.43;;;11.20;99.90;;;;;;5074741;28;20419;-68
2022/04/22 08:59:29;;;;;;;6.50;4.80;;;11.30;99.90;;;;;;5072503;28;20767;-68
2022/04/22 09:01:56;;;;;;;4.57;4.10;;;11.30;99.90;;;;;;5054139;28;20713;-69
2022/04/22 09:04:22;;;;;;;6.17;5.47;;;11.50;99.90;;;;;;5054234;28;20211;-69
2022/04/22 09:06:50;;;;;;;6.20;5.47;;;11.60;99.90;;;;;;5054323;28;20412;-68
2022/04/22 09:09:17;;;;;;;6.60;5.47;;;11.70;99.90;;;;;;5036562;28;20198;-68
2022/04/22 09:11:43;;;;;;;4.20;3.80;;;11.60;99.90;;;;;;5054223;28;20425;-68
2022/04/22 09:14:09;;;;;;;5.67;4.17;;;11.60;99.90;;;;;;5036284;28;21057;-68
2022/04/22 09:16:34;;;;;;;4.40;3.90;;;11.70;99.90;;;;;;5054198;28;20733;-68
2022/04/22 09:19:02;;;;;;;4.30;3.90;;;11.70;99.90;;;;;;5055305;28;20171;-68
2022/04/22 09:21:29;;;;;;;6.70;5.00;;;11.80;99.90;;;;;;5057237;28;20178;-68
2022/04/22 09:23:54;;;;;;;6.10;4.60;;;11.90;99.90;;;;;;5056036;28;20438;-69
2022/04/22 09:26:22;;;;;;;7.23;5.50;;;11.70;99.90;;;;;;5056676;28;20789;-69
2022/04/22 09:29:00;;;;;;;5.03;4.53;;;11.80;99.90;;;;;;5056531;28;20174;-70
2022/04/22 09:31:27;;;;;;;6.87;5.00;;;11.90;99.90;;;;;;5056344;28;20417;-68
2022/04/22 09:33:54;;;;;;;9.20;5.30;;;12.00;99.90;;;;;;5056876;28;20417;-70
2022/04/22 09:44:58;;;;;;;7.80;5.40;;;12.10;99.90;;;;;;5033922;28;20541;-69
2022/04/22 09:47:30;;;;;;;9.57;5.63;;;12.20;99.90;;;;;;5034030;28;20429;-68
2022/04/22 09:49:56;;;;;;;8.00;5.67;;;12.20;99.90;;;;;;5033863;28;20478;-69
2022/04/22 09:52:27;;;;;;;10.87;5.87;;;12.60;99.90;;;;;;5034147;28;20892;-68
2022/04/22 09:55:01;;;;;;;6.47;5.87;;;12.60;99.90;;;;;;5064387;23;20997;-71
2022/04/22 09:57:28;;;;;;;8.00;5.90;;;12.70;99.90;;;;;;5053346;28;20440;-71
2022/04/22 09:59:53;;;;;;;6.80;5.20;;;12.80;99.90;;;;;;5053266;28;20425;-71
2022/04/22 10:02:21;;;;;;;7.17;5.73;;;12.90;99.90;;;;;;5053111;28;20437;-72
2022/04/22 10:04:48;;;;;;;10.43;6.57;;;13.00;99.90;;;;;;5052682;28;20461;-71
2022/04/22 10:07:16;;;;;;;8.17;6.13;;;13.10;99.90;;;;;;5053005;28;20488;-71
2022/04/22 10:09:43;;;;;;;7.47;6.33;;;13.30;99.90;;;;;;5053080;28;20412;-71
2022/04/22 10:12:10;;;;;;;12.87;7.00;;;13.40;99.90;;;;;;5052885;28;20413;-71
2022/04/22 10:14:38;;;;;;;9.10;6.60;;;13.30;99.90;;;;;;5052664;28;20445;-71
2022/04/22 10:17:05;;;;;;;8.77;6.23;;;13.20;99.90;;;;;;5052795;28;20907;-71
2022/04/22 10:19:34;;;;;;;9.63;7.03;;;13.30;99.90;;;;;;5052919;28;20437;-71
2022/04/22 10:22:01;;;;;;;11.00;7.83;;;13.20;99.90;;;;;;5060342;28;20430;-72
2022/04/22 10:24:28;;;;;;;9.90;6.63;;;13.00;99.90;;;;;;5052516;28;20967;-71
2022/04/22 10:26:53;;;;;;;7.00;6.37;;;12.90;99.90;;;;;;5052646;28;20779;-69
2022/04/22 10:29:20;;;;;;;11.40;6.90;;;12.80;99.90;;;;;;5051826;28;20410;-69
2022/04/22 10:31:46;;;;;;;7.50;6.70;;;12.90;99.90;;;;;;5052548;28;20167;-71
2022/04/22 10:34:12;;;;;;;10.37;7.27;;;13.00;99.90;;;;;;5052555;28;20441;-70
2022/04/22 10:36:40;;;;;;;9.40;7.77;;;12.90;99.90;;;;;;5070370;28;21033;-70
2022/04/22 10:39:05;;;;;;;9.47;7.47;;;12.80;99.90;;;;;;5060715;28;20257;-70
2022/04/22 10:41:43;;;;;;;11.73;8.07;;;12.70;99.90;;;;;;5052108;28;20974;-71
2022/04/22 10:47:13;;;;;;;10.90;8.50;;;12.70;99.90;;;;;;5052639;28;20412;-71
2022/04/22 10:49:45;;;;;;;9.47;6.50;;;12.70;99.90;;;;;;5052358;28;20417;-70
2022/04/22 10:52:17;;;;;;;8.70;7.70;;;12.70;99.90;;;;;;5052253;28;20402;-70
2022/04/22 10:54:52;;;;;;;12.03;7.20;;;12.80;99.90;;;;;;5052084;28;20464;-70
2022/04/22 10:57:20;;;;;;;9.87;8.20;;;12.90;99.90;;;;;;5052225;28;20483;-71
2022/04/22 11:00:00;;;;;;;15.37;8.77;;;13.00;99.90;;;;;;5052222;28;20401;-71
2022/04/22 11:02:29;;;;;;;10.47;7.97;;;13.00;99.90;;;;;;5051833;28;20775;-71
2022/04/22 11:05:19;;;;;;;9.90;7.47;;;13.10;99.90;;;;;;5051735;28;20465;-71
2022/04/22 11:07:50;;;;;;;7.87;7.07;;;13.20;99.90;;;;;;5052052;28;20397;-71
2022/04/22 11:10:17;;;;;;;9.27;6.63;;;13.10;99.90;;;;;;5052023;28;20831;-71
2022/04/22 11:12:59;;;;;;;8.70;7.77;;;13.20;99.90;;;;;;5051773;28;20432;-70
2022/04/22 11:15:43;;;;;;;9.77;8.43;;;13.20;99.90;;;;;;5051719;28;20567;-70
2022/04/22 11:18:09;;;;;;;11.33;7.87;;;13.10;99.90;;;;;;5044496;28;20414;-70
2022/04/22 11:20:36;;;;;;;10.83;7.77;;;13.10;99.90;;;;;;5051712;28;20937;-71
2022/04/22 11:23:03;;;;;;;12.87;8.90;;;13.10;99.90;;;;;;5051875;28;20413;-71
2022/04/22 11:25:29;;;;;;;8.33;7.53;;;13.20;99.90;;;;;;5051460;28;20467;-71
2022/04/22 11:27:56;;;;;;;11.87;8.73;;;13.00;99.90;;;;;;5051103;28;20424;-70
2022/04/22 11:30:24;;;;;;;10.47;9.27;;;13.00;99.90;;;;;;5051392;28;20413;-71
2022/04/22 11:32:56;;;;;;;11.30;9.10;;;12.90;99.90;;;;;;5051760;28;20414;-71
2022/04/22 11:35:24;;;;;;;12.43;9.60;;;12.90;99.90;;;;;;5051480;28;20541;-71
2022/04/22 11:38:03;;;;;;;11.90;9.23;;;12.80;99.90;;;;;;5051872;28;20409;-71
2022/04/22 11:40:33;;;;;;;10.60;8.47;;;12.80;99.90;;;;;;5052450;28;20899;-70
2022/04/22 11:43:05;;;;;;;10.40;8.53;;;12.80;99.90;;;;;;5055512;28;20446;-71
2022/04/22 11:45:34;;;;;;;12.37;10.50;;;12.80;99.90;;;;;;5055467;28;20456;-71
2022/04/22 11:48:06;;;;;;;11.90;10.23;;;12.70;99.90;;;;;;5055783;28;20485;-71
2022/04/22 11:50:38;;;;;;;16.90;10.73;;;12.80;99.90;;;;;;5056159;28;20899;-71
2022/04/22 11:53:12;;;;;;;14.43;10.40;;;12.60;99.90;;;;;;5055660;28;20488;-71
2022/04/22 11:55:38;;;;;;;16.03;11.30;;;12.50;99.90;;;;;;5055136;28;20560;-70
2022/04/22 11:58:03;;;;;;;17.77;11.87;;;12.50;99.90;;;;;;5055320;28;20828;-70
2022/04/22 12:05:57;;;;;;;15.77;11.13;;;12.40;99.90;;;;;;5055198;28;20506;-71
2022/04/22 12:08:23;;;;;;;11.80;10.20;;;12.30;99.90;;;;;;5055203;28;20805;-71
2022/04/22 12:10:50;;;;;;;13.53;10.93;;;12.30;99.90;;;;;;5055156;28;20202;-68
2022/04/22 12:13:16;;;;;;;14.70;11.03;;;12.40;99.90;;;;;;5055116;28;20208;-70
2022/04/22 12:15:48;;;;;;;15.00;11.20;;;12.30;99.90;;;;;;5054688;28;20417;-71
2022/04/22 12:18:34;;;;;;;12.60;10.80;;;12.30;99.90;;;;;;5054964;28;20496;-71
2022/04/22 12:21:00;;;;;;;15.53;10.77;;;12.30;99.90;;;;;;5055262;28;20409;-71
2022/04/22 12:23:39;;;;;;;15.13;11.50;;;12.20;99.90;;;;;;5055596;28;20404;-71
2022/04/22 12:26:12;;;;;;;16.93;11.20;;;12.20;99.90;;;;;;5072228;28;20204;-70
2022/04/22 12:28:54;;;;;;;23.17;11.70;;;12.30;99.90;;;;;;5055178;28;20393;-71
2022/04/22 12:31:24;;;;;;;15.70;9.67;;;12.40;99.90;;;;;;5054505;28;20413;-71
2022/04/22 12:34:04;;;;;;;13.73;10.17;;;12.50;99.90;;;;;;5054961;28;20405;-70
2022/04/22 12:36:33;;;;;;;15.47;10.93;;;12.80;99.90;;;;;;5046820;28;20419;-71
2022/04/22 12:38:59;;;;;;;15.67;9.10;;;12.90;99.90;;;;;;5074767;28;20905;-71
2022/04/22 12:41:25;;;;;;;14.07;9.47;;;13.00;99.90;;;;;;5074665;28;20476;-70
2022/04/22 12:43:55;;;;;;;17.27;10.70;;;13.10;99.90;;;;;;5074789;28;20535;-70
2022/04/22 12:52:17;;;;;;;10.40;8.00;;;13.30;99.90;;;;;;5053738;28;20409;-71
2022/04/22 12:54:45;;;;;;;12.33;9.03;;;13.60;99.90;;;;;;5054007;28;20548;-71
2022/04/22 12:57:25;;;;;;;12.57;11.00;;;13.80;99.90;;;;;;5054410;28;20420;-71
2022/04/22 12:59:54;;;;;;;14.87;9.80;;;13.60;99.90;;;;;;5054245;28;20484;-71
2022/04/22 13:02:30;;;;;;;13.37;10.00;;;13.60;99.90;;;;;;5052939;28;20516;-70
2022/04/22 13:05:03;;;;;;;15.00;10.20;;;13.60;99.90;;;;;;5054132;28;20464;-71
2022/04/22 13:07:47;;;;;;;12.77;9.23;;;13.70;99.90;;;;;;5054357;28;20405;-71
2022/04/22 13:10:13;;;;;;;15.03;11.27;;;13.90;99.90;;;;;;5054131;28;20431;-71
2022/04/22 13:12:41;;;;;;;14.20;9.70;;;14.20;99.90;;;;;;5054031;28;20409;-72
2022/04/22 13:15:09;;;;;;;14.50;11.07;;;14.00;99.90;;;;;;5053965;28;20437;-72
2022/04/22 13:17:39;;;;;;;12.00;10.17;;;13.90;99.90;;;;;;5053955;28;20425;-71
2022/04/22 13:20:06;;;;;;;9.60;8.70;;;13.90;99.90;;;;;;5046417;28;20413;-71
2022/04/22 13:22:32;;;;;;;14.13;9.33;;;13.90;99.90;;;;;;5054022;28;20405;-71
2022/04/22 13:24:57;;;;;;;11.73;8.60;;;13.90;99.90;;;;;;5053653;28;20888;-72
2022/04/22 13:27:23;;;;;;;11.27;8.97;;;13.80;99.90;;;;;;5053744;28;20174;-72
2022/04/22 13:29:48;;;;;;;12.83;9.23;;;13.80;99.90;;;;;;5053769;28;20177;-72
2022/04/22 13:32:14;;;;;;;16.50;9.60;;;13.80;99.90;;;;;;5053660;28;20171;-72
2022/04/22 13:34:39;;;;;;;13.43;9.30;;;13.70;99.90;;;;;;5053512;28;20195;-72
2022/04/22 13:37:05;;;;;;;10.90;8.37;;;13.70;99.90;;;;;;5053530;28;20720;-72
2022/04/22 13:39:31;;;;;;;10.70;8.10;;;13.70;99.90;;;;;;5053568;28;20208;-71
2022/04/22 13:41:56;;;;;;;14.27;8.23;;;13.60;99.90;;;;;;5053393;28;20170;-73
2022/04/22 13:52:36;;;;;;;13.00;8.57;;;13.20;99.90;;;;;;5053176;28;20401;-70
2022/04/22 13:55:02;;;;;;;10.13;7.17;;;13.20;99.90;;;;;;5052828;28;20457;-69
2022/04/22 13:57:27;;;;;;;8.40;6.97;;;13.20;99.90;;;;;;5053098;28;20167;-69
2022/04/22 13:59:53;;;;;;;9.97;7.93;;;13.20;99.90;;;;;;5052909;28;20478;-70
2022/04/22 14:02:18;;;;;;;9.53;6.97;;;13.20;99.90;;;;;;5052986;28;20159;-70
2022/04/22 14:04:44;;;;;;;7.90;7.00;;;13.30;99.90;;;;;;5051737;28;20206;-70
2022/04/22 14:07:09;;;;;;;9.23;6.50;;;13.30;99.90;;;;;;5052937;28;20625;-70